createdAt,value
2022-12-23T00:01:20.378Z,9.18
2022-12-23T00:03:48.054Z,9.06
2022-12-23T00:06:16.922Z,9.08
2022-12-23T00:08:45.326Z,9.01
2022-12-23T00:11:17.487Z,9.06
2022-12-23T00:14:03.725Z,8.97
2022-12-23T00:16:31.951Z,9.36
2022-12-23T00:18:59.602Z,9.24
2022-12-23T00:21:27.486Z,9.02
2022-12-23T00:23:55.247Z,9.14
2022-12-23T00:26:24.258Z,9.30
2022-12-23T00:28:52.156Z,9.07
2022-12-23T00:31:20.167Z,9.28
2022-12-23T00:33:49.174Z,9.06
2022-12-23T00:36:24.315Z,9.11
2022-12-23T00:39:11.037Z,9.06
2022-12-23T00:41:57.802Z,9.28
2022-12-23T00:44:25.528Z,9.23
2022-12-23T00:46:53.603Z,9.36
2022-12-23T00:49:39.871Z,9.22
2022-12-23T00:52:09.307Z,9.06
2022-12-23T00:54:37.039Z,8.93
2022-12-23T00:57:05.341Z,8.99
2022-12-23T00:59:33.387Z,8.95
2022-12-23T01:02:19.902Z,9.21
2022-12-23T01:05:05.825Z,9.21
2022-12-23T01:07:33.630Z,8.99
2022-12-23T01:10:01.439Z,9.03
2022-12-23T01:12:29.066Z,9.17
2022-12-23T01:14:56.693Z,9.26
2022-12-23T01:17:24.362Z,9.22
2022-12-23T01:19:52.236Z,9.36
2022-12-23T01:22:22.919Z,9.23
2022-12-23T01:24:50.577Z,9.25
2022-12-23T01:27:18.545Z,9.09
2022-12-23T01:29:46.267Z,9.15
2022-12-23T01:32:14.162Z,9.20
2022-12-23T01:34:41.981Z,9.06
2022-12-23T01:37:09.703Z,9.06
2022-12-23T01:39:37.755Z,8.71
2022-12-23T01:42:25.571Z,8.68
2022-12-23T01:44:57.843Z,9.20
2022-12-23T01:47:25.775Z,9.13
2022-12-23T01:50:13.562Z,8.89
2022-12-23T01:52:52.192Z,8.71
2022-12-23T01:55:22.396Z,8.77
2022-12-23T01:57:50.300Z,8.83
2022-12-23T02:00:36.495Z,9.13
2022-12-23T02:03:22.943Z,9.32
2022-12-23T02:05:52.219Z,8.93
2022-12-23T02:08:38.743Z,8.84
2022-12-23T02:11:12.175Z,8.94
2022-12-23T02:14:24.380Z,8.78
2022-12-23T02:16:56.438Z,8.72
2022-12-23T02:19:42.342Z,8.66
2022-12-23T02:22:23.026Z,8.57
2022-12-23T02:24:56.441Z,8.56
2022-12-23T02:27:45.481Z,8.47
2022-12-23T02:30:24.996Z,8.47
2022-12-23T02:32:52.766Z,8.55
2022-12-23T02:35:20.516Z,8.55
2022-12-23T02:37:47.996Z,8.52
2022-12-23T02:40:31.697Z,8.29
2022-12-23T02:43:00.870Z,8.51
2022-12-23T02:45:36.100Z,8.59
2022-12-23T02:48:08.696Z,8.50
2022-12-23T02:50:38.664Z,8.47
2022-12-23T02:53:14.376Z,8.44
2022-12-23T02:55:43.592Z,8.43
2022-12-23T02:58:16.100Z,8.38
2022-12-23T03:00:44.294Z,8.44
2022-12-23T03:03:11.990Z,8.37
2022-12-23T03:05:46.763Z,8.35
2022-12-23T03:08:16.860Z,8.54
2022-12-23T03:11:05.512Z,8.41
2022-12-23T03:13:33.386Z,8.38
2022-12-23T03:16:19.729Z,8.23
2022-12-23T03:18:47.764Z,8.31
2022-12-23T03:21:36.934Z,8.15
2022-12-23T03:24:04.640Z,8.22
2022-12-23T03:27:01.670Z,8.13
2022-12-23T03:29:53.921Z,8.08
2022-12-23T03:32:22.408Z,8.13
2022-12-23T03:34:52.514Z,8.15
2022-12-23T03:37:21.854Z,8.22
2022-12-23T03:39:54.975Z,8.11
2022-12-23T03:42:50.371Z,8.08
2022-12-23T03:45:38.665Z,8.34
2022-12-23T03:48:10.299Z,8.29
2022-12-23T03:50:41.861Z,8.32
2022-12-23T03:53:16.992Z,8.46
2022-12-23T03:55:47.144Z,8.18
2022-12-23T03:58:20.333Z,8.22
2022-12-23T04:00:53.508Z,8.18
2022-12-23T04:03:32.139Z,8.05
2022-12-23T04:06:02.325Z,8.05
2022-12-23T04:08:32.998Z,8.11
2022-12-23T04:11:01.488Z,8.06
2022-12-23T04:13:30.219Z,8.17
2022-12-23T04:15:58.710Z,8.02
2022-12-23T04:18:26.428Z,8.00
2022-12-23T04:20:54.626Z,8.25
2022-12-23T04:23:22.800Z,8.50
2022-12-23T04:25:51.030Z,8.50
2022-12-23T04:28:19.298Z,8.50
2022-12-23T04:30:47.293Z,8.16
2022-12-23T04:33:15.125Z,8.24
2022-12-23T04:35:43.189Z,8.23
2022-12-23T04:38:11.145Z,8.24
2022-12-23T04:40:39.073Z,8.19
2022-12-23T04:43:07.173Z,8.08
2022-12-23T04:45:34.827Z,8.22
2022-12-23T04:48:02.899Z,8.34
2022-12-23T04:50:31.120Z,8.18
2022-12-23T04:52:59.080Z,8.15
2022-12-23T04:55:26.890Z,8.23
2022-12-23T04:57:54.587Z,8.18
2022-12-23T05:00:22.481Z,8.28
2022-12-23T05:02:50.362Z,8.24
2022-12-23T05:05:18.640Z,8.24
2022-12-23T05:07:49.321Z,8.14
2022-12-23T05:10:17.243Z,8.11
2022-12-23T05:12:44.903Z,8.31
2022-12-23T05:15:12.702Z,8.38
2022-12-23T05:17:40.402Z,8.18
2022-12-23T05:20:09.316Z,8.15
2022-12-23T05:22:37.086Z,8.27
2022-12-23T05:25:05.565Z,8.23
2022-12-23T05:27:33.459Z,8.11
2022-12-23T05:30:01.106Z,8.22
2022-12-23T05:32:28.778Z,8.33
2022-12-23T05:34:56.767Z,8.35
2022-12-23T05:37:24.633Z,8.33
2022-12-23T05:39:52.390Z,8.47
2022-12-23T05:42:20.327Z,8.63
2022-12-23T05:44:48.203Z,8.59
2022-12-23T05:47:16.137Z,8.71
2022-12-23T05:49:44.443Z,8.76
2022-12-23T05:52:12.261Z,8.81
2022-12-23T05:54:40.184Z,8.84
2022-12-23T05:57:08.340Z,8.98
2022-12-23T05:59:36.315Z,8.73
2022-12-23T06:02:04.468Z,8.38
2022-12-23T06:04:32.655Z,8.44
2022-12-23T06:07:00.532Z,8.31
2022-12-23T06:09:28.427Z,8.38
2022-12-23T06:11:56.527Z,8.29
2022-12-23T06:14:28.813Z,8.42
2022-12-23T06:16:57.305Z,8.28
2022-12-23T06:19:25.229Z,8.22
2022-12-23T06:21:52.765Z,8.30
2022-12-23T06:24:20.919Z,8.49
2022-12-23T06:26:53.371Z,8.51
2022-12-23T06:29:24.568Z,8.51
2022-12-23T06:31:52.304Z,8.37
2022-12-23T06:34:19.956Z,8.30
2022-12-23T06:36:47.998Z,8.72
2022-12-23T06:39:15.786Z,8.62
2022-12-23T06:41:43.517Z,8.67
2022-12-23T06:44:11.771Z,8.76
2022-12-23T06:46:39.884Z,8.41
2022-12-23T06:49:13.125Z,8.32
2022-12-23T06:51:41.863Z,8.62
2022-12-23T06:54:11.221Z,8.79
2022-12-23T06:56:39.382Z,8.91
2022-12-23T06:59:07.258Z,8.91
2022-12-23T07:01:35.056Z,8.84
2022-12-23T07:04:03.242Z,8.52
2022-12-23T07:06:31.112Z,8.59
2022-12-23T07:08:59.353Z,8.35
2022-12-23T07:11:27.329Z,8.23
2022-12-23T07:13:55.104Z,8.26
2022-12-23T07:16:23.024Z,8.14
2022-12-23T07:18:50.736Z,8.04
2022-12-23T07:21:26.690Z,8.27
2022-12-23T07:23:56.520Z,8.07
2022-12-23T07:26:24.286Z,7.99
2022-12-23T07:28:52.112Z,8.01
2022-12-23T07:31:19.859Z,8.08
2022-12-23T07:33:47.630Z,8.20
2022-12-23T07:36:15.198Z,8.24
2022-12-23T07:38:43.449Z,8.19
2022-12-23T07:41:11.774Z,8.44
2022-12-23T07:43:39.728Z,8.41
2022-12-23T07:46:08.544Z,8.51
2022-12-23T07:48:36.755Z,8.33
2022-12-23T07:51:04.956Z,8.50
2022-12-23T07:53:33.054Z,8.70
2022-12-23T07:56:04.095Z,9.02
2022-12-23T07:58:32.095Z,8.97
2022-12-23T08:01:03.652Z,8.87
2022-12-23T08:03:32.368Z,9.01
2022-12-23T08:06:12.615Z,9.04
2022-12-23T08:08:41.679Z,8.88
2022-12-23T08:11:10.426Z,8.86
2022-12-23T08:13:40.044Z,8.84
2022-12-23T08:16:08.054Z,8.64
2022-12-23T08:18:37.081Z,8.61
2022-12-23T08:21:06.232Z,8.58
2022-12-23T08:23:34.232Z,8.59
2022-12-23T08:26:06.502Z,8.78
2022-12-23T08:28:35.094Z,8.56
2022-12-23T08:31:08.603Z,8.59
2022-12-23T08:33:38.377Z,8.58
2022-12-23T08:36:07.089Z,8.80
2022-12-23T08:38:35.333Z,8.80
2022-12-23T08:41:03.320Z,8.74
2022-12-23T08:43:35.707Z,8.80
2022-12-23T08:46:04.490Z,8.82
2022-12-23T08:48:33.644Z,8.92
2022-12-23T08:51:06.358Z,8.68
2022-12-23T08:53:35.699Z,8.54
2022-12-23T08:56:06.788Z,8.71
2022-12-23T08:58:38.170Z,8.68
2022-12-23T09:01:08.256Z,8.66
2022-12-23T09:03:36.666Z,8.77
2022-12-23T09:06:06.167Z,8.81
2022-12-23T09:08:34.661Z,8.97
2022-12-23T09:11:02.509Z,9.00
2022-12-23T09:13:35.264Z,8.79
2022-12-23T09:16:04.630Z,8.92
2022-12-23T09:18:33.318Z,9.15
2022-12-23T09:21:02.826Z,8.91
2022-12-23T09:23:30.768Z,9.21
2022-12-23T09:25:59.008Z,9.25
2022-12-23T09:28:27.129Z,8.96
2022-12-23T09:30:54.924Z,9.20
2022-12-23T09:33:23.163Z,9.33
2022-12-23T09:35:51.550Z,9.03
2022-12-23T09:38:20.141Z,8.88
2022-12-23T09:40:47.977Z,9.15
2022-12-23T09:43:24.509Z,9.43
2022-12-23T09:46:06.917Z,9.31
2022-12-23T09:48:38.534Z,9.51
2022-12-23T09:51:06.315Z,9.54
2022-12-23T09:54:16.416Z,9.34
2022-12-23T09:56:54.138Z,9.27
2022-12-23T09:59:21.937Z,9.11
2022-12-23T10:02:09.804Z,9.40
2022-12-23T10:04:42.116Z,9.39
2022-12-23T10:07:29.989Z,9.44
2022-12-23T10:10:01.710Z,9.59
2022-12-23T10:12:40.163Z,9.44
2022-12-23T10:15:20.341Z,9.57
2022-12-23T10:17:50.461Z,9.96
2022-12-23T10:20:21.171Z,10.07
2022-12-23T10:22:48.607Z,10.02
2022-12-23T10:25:20.028Z,9.82
2022-12-23T10:27:47.703Z,9.83
2022-12-23T10:33:18.217Z,9.41
2022-12-23T10:36:11.985Z,9.65
2022-12-23T10:38:58.413Z,9.53
2022-12-23T10:41:38.313Z,9.93
2022-12-23T10:44:12.131Z,9.93
2022-12-23T10:47:00.200Z,9.89
2022-12-23T10:49:36.496Z,9.86
2022-12-23T10:52:09.306Z,9.96
2022-12-23T10:54:37.527Z,9.99
2022-12-23T10:57:06.693Z,10.31
2022-12-23T10:59:34.930Z,10.23
2022-12-23T11:02:14.486Z,10.20
2022-12-23T11:04:42.443Z,10.47
2022-12-23T11:10:03.684Z,10.44
2022-12-23T11:12:42.154Z,10.17
2022-12-23T11:15:29.905Z,10.22
2022-12-23T11:18:17.760Z,10.18
2022-12-23T11:20:46.895Z,10.52
2022-12-23T11:23:28.841Z,10.73
2022-12-23T11:26:07.117Z,10.34
2022-12-23T11:28:37.437Z,10.56
2022-12-23T11:31:12.033Z,10.67
2022-12-23T11:34:00.007Z,10.94
2022-12-23T11:36:29.205Z,10.87
2022-12-23T11:38:56.885Z,10.89
2022-12-23T11:41:27.066Z,10.71
2022-12-23T11:44:01.801Z,10.80
2022-12-23T11:46:30.972Z,10.57
2022-12-23T11:49:16.633Z,10.41
2022-12-23T11:51:45.747Z,10.56
2022-12-23T11:54:18.364Z,10.28
2022-12-23T11:56:48.533Z,10.30
2022-12-23T11:59:22.049Z,10.46
2022-12-23T12:01:49.916Z,10.08
2022-12-23T12:04:25.369Z,10.00
2022-12-23T12:06:56.605Z,10.09
2022-12-23T12:09:25.306Z,10.16
2022-12-23T12:11:55.032Z,10.19
2022-12-23T12:14:34.068Z,10.10
2022-12-23T12:17:14.644Z,10.20
2022-12-23T12:19:47.369Z,10.30
2022-12-23T12:22:18.868Z,10.38
2022-12-23T12:24:50.581Z,10.63
2022-12-23T12:27:19.303Z,10.53
2022-12-23T12:29:49.247Z,10.35
2022-12-23T12:32:39.876Z,10.45
2022-12-23T12:35:13.212Z,10.26
2022-12-23T12:37:50.280Z,10.58
2022-12-23T12:40:24.328Z,10.33
2022-12-23T12:43:10.607Z,10.41
2022-12-23T12:45:45.764Z,10.52
2022-12-23T12:48:31.928Z,10.73
2022-12-23T12:51:21.168Z,10.76
2022-12-23T12:54:07.405Z,10.73
2022-12-23T12:56:43.989Z,10.81
2022-12-23T12:59:18.543Z,10.95
2022-12-23T13:01:46.533Z,10.88
2022-12-23T13:04:17.302Z,10.88
2022-12-23T13:07:00.033Z,10.91
2022-12-23T13:09:50.687Z,10.78
2022-12-23T13:12:50.922Z,10.70
2022-12-23T13:15:22.469Z,10.74
2022-12-23T13:18:06.219Z,10.44
2022-12-23T13:20:36.898Z,10.55
2022-12-23T13:23:41.625Z,10.78
2022-12-23T13:26:05.491Z,10.79
2022-12-23T13:28:36.397Z,10.91
2022-12-23T13:31:24.836Z,10.99
2022-12-23T13:34:12.732Z,10.85
2022-12-23T13:36:49.203Z,10.83
2022-12-23T13:39:16.768Z,10.82
2022-12-23T13:41:47.251Z,10.49
2022-12-23T13:44:15.303Z,10.60
2022-12-23T13:47:01.009Z,10.50
2022-12-23T13:49:40.540Z,10.37
2022-12-23T13:52:29.641Z,10.45
2022-12-23T13:55:15.604Z,10.49
2022-12-23T13:57:52.129Z,10.38
2022-12-23T14:00:20.268Z,10.41
2022-12-23T14:02:47.902Z,10.42
2022-12-23T14:05:35.124Z,10.36
2022-12-23T14:08:07.319Z,10.10
2022-12-23T14:10:35.763Z,10.27
2022-12-23T14:13:06.371Z,10.38
2022-12-23T14:15:33.987Z,10.29
2022-12-23T14:18:20.310Z,10.32
2022-12-23T14:20:50.772Z,10.34
2022-12-23T14:23:33.463Z,10.33
2022-12-23T14:26:07.296Z,10.34
2022-12-23T14:28:44.136Z,10.30
2022-12-23T14:31:30.386Z,10.36
2022-12-23T14:34:27.102Z,10.41
2022-12-23T14:37:13.214Z,10.44
2022-12-23T14:39:40.845Z,10.41
2022-12-23T14:42:16.468Z,10.43
2022-12-23T14:44:46.443Z,10.36
2022-12-23T14:47:32.479Z,10.40
2022-12-23T14:50:18.620Z,10.27
2022-12-23T14:52:46.739Z,10.33
2022-12-23T14:55:31.663Z,10.33
2022-12-23T14:58:08.494Z,10.17
2022-12-23T15:00:45.069Z,9.99
2022-12-23T15:03:13.120Z,10.02
2022-12-23T15:05:40.718Z,9.99
2022-12-23T15:08:34.231Z,10.02
2022-12-23T15:11:02.159Z,10.04
2022-12-23T15:13:31.176Z,9.94
2022-12-23T15:16:01.695Z,9.99
2022-12-23T15:18:29.759Z,9.99
2022-12-23T15:21:04.944Z,9.81
2022-12-23T15:23:33.442Z,9.83
2022-12-23T15:26:01.532Z,9.97
2022-12-23T15:28:33.591Z,9.90
2022-12-23T15:31:02.043Z,9.78
2022-12-23T15:36:35.893Z,9.60
2022-12-23T15:39:09.433Z,9.67
2022-12-23T15:41:44.114Z,9.62
2022-12-23T15:44:14.150Z,9.56
2022-12-23T15:46:41.786Z,9.70
2022-12-23T15:49:11.159Z,9.77
2022-12-23T15:52:06.588Z,9.80
2022-12-23T15:54:35.501Z,9.59
2022-12-23T15:57:03.487Z,9.57
2022-12-23T15:59:38.524Z,9.53
2022-12-23T16:02:40.495Z,9.47
2022-12-23T16:05:00.554Z,9.41
2022-12-23T16:07:41.664Z,9.71
2022-12-23T16:10:12.160Z,9.63
2022-12-23T16:12:40.388Z,9.52
2022-12-23T16:15:28.347Z,9.84
2022-12-23T16:18:11.661Z,9.80
2022-12-23T16:20:41.889Z,10.03
2022-12-23T16:23:11.410Z,9.95
2022-12-23T16:25:39.543Z,9.84
2022-12-23T16:28:23.107Z,9.78
2022-12-23T16:30:54.612Z,9.75
2022-12-23T16:33:28.031Z,9.83
2022-12-23T16:35:56.120Z,9.69
2022-12-23T16:38:24.935Z,9.70
2022-12-23T16:40:54.088Z,9.77
2022-12-23T16:43:22.232Z,9.78
2022-12-23T16:45:57.095Z,9.78
2022-12-23T16:48:24.467Z,10.00
2022-12-23T16:50:52.652Z,10.09
2022-12-23T16:53:20.551Z,9.86
2022-12-23T16:55:55.050Z,10.08
2022-12-23T16:58:26.587Z,10.10
2022-12-23T17:00:54.558Z,9.88
2022-12-23T17:03:22.138Z,9.85
2022-12-23T17:05:49.841Z,9.90
2022-12-23T17:08:17.239Z,9.67
2022-12-23T17:10:45.708Z,9.66
2022-12-23T17:13:14.405Z,9.73
2022-12-23T17:15:43.043Z,9.92
2022-12-23T17:18:19.607Z,9.98
2022-12-23T17:20:48.475Z,10.05
2022-12-23T17:23:27.053Z,10.15
2022-12-23T17:25:54.699Z,10.04
2022-12-23T17:28:22.349Z,10.10
2022-12-23T17:30:54.312Z,9.81
2022-12-23T17:33:23.367Z,9.70
2022-12-23T17:35:50.784Z,9.90
2022-12-23T17:38:18.649Z,9.66
2022-12-23T17:40:47.067Z,9.68
2022-12-23T17:43:15.714Z,9.76
2022-12-23T17:45:43.988Z,9.76
2022-12-23T17:48:18.005Z,9.77
2022-12-23T17:50:48.649Z,9.68
2022-12-23T17:53:17.449Z,9.62
2022-12-23T17:55:45.191Z,9.70
2022-12-23T17:58:14.256Z,9.56
2022-12-23T18:00:41.970Z,9.40
2022-12-23T18:03:21.018Z,9.57
2022-12-23T18:05:48.639Z,9.54
2022-12-23T18:08:17.119Z,9.60
2022-12-23T18:10:45.852Z,9.82
2022-12-23T18:13:15.960Z,9.59
2022-12-23T18:15:44.200Z,9.54
2022-12-23T18:18:20.550Z,9.61
2022-12-23T18:20:56.032Z,9.47
2022-12-23T18:23:26.047Z,9.49
2022-12-23T18:25:53.956Z,9.71
2022-12-23T18:28:21.966Z,9.68
2022-12-23T18:30:50.130Z,9.54
2022-12-23T18:33:19.118Z,9.44
2022-12-23T18:35:48.382Z,9.26
2022-12-23T18:38:17.379Z,9.26
2022-12-23T18:40:45.613Z,9.39
2022-12-23T18:43:18.098Z,9.34
2022-12-23T18:45:52.250Z,9.21
2022-12-23T18:48:20.800Z,9.44
2022-12-23T18:50:48.816Z,9.25
2022-12-23T18:53:23.426Z,9.22
2022-12-23T18:55:52.380Z,9.35
2022-12-23T18:58:20.655Z,9.21
2022-12-23T19:00:48.800Z,9.09
2022-12-23T19:03:22.078Z,9.18
2022-12-23T19:05:50.187Z,9.46
2022-12-23T19:08:25.531Z,9.41
2022-12-23T19:10:55.228Z,9.41
2022-12-23T19:13:23.694Z,9.42
2022-12-23T19:15:52.130Z,9.70
2022-12-23T19:18:20.948Z,9.66
2022-12-23T19:20:49.185Z,9.72
2022-12-23T19:23:16.685Z,9.73
2022-12-23T19:25:52.446Z,9.74
2022-12-23T19:28:22.927Z,9.44
2022-12-23T19:30:50.621Z,9.57
2022-12-23T19:33:18.345Z,9.52
2022-12-23T19:35:45.985Z,9.71
2022-12-23T19:38:13.543Z,9.35
2022-12-23T19:40:41.468Z,9.35
2022-12-23T19:43:09.129Z,9.36
2022-12-23T19:45:36.776Z,9.41
2022-12-23T19:48:04.605Z,9.29
2022-12-23T19:50:32.279Z,9.28
2022-12-23T19:53:00.098Z,9.24
2022-12-23T19:55:27.614Z,9.11
2022-12-23T19:57:55.682Z,9.19
2022-12-23T20:00:23.225Z,9.49
2022-12-23T20:02:56.749Z,9.46
2022-12-23T20:05:26.299Z,9.37
2022-12-23T20:07:57.132Z,9.18
2022-12-23T20:10:24.956Z,9.24
2022-12-23T20:13:12.828Z,9.17
2022-12-23T20:15:40.312Z,9.12
2022-12-23T20:18:10.366Z,9.22
2022-12-23T20:20:38.679Z,9.06
2022-12-23T20:23:06.399Z,9.15
2022-12-23T20:25:34.703Z,9.12
2022-12-23T20:28:03.363Z,9.23
2022-12-23T20:30:30.870Z,9.19
2022-12-23T20:32:59.785Z,9.18
2022-12-23T20:35:28.163Z,9.29
2022-12-23T20:37:55.786Z,9.15
2022-12-23T20:40:26.415Z,9.13
2022-12-23T20:42:54.273Z,9.06
2022-12-23T20:45:21.847Z,9.19
2022-12-23T20:47:50.907Z,9.17
2022-12-23T20:50:19.289Z,9.08
2022-12-23T20:52:47.250Z,9.02
2022-12-23T20:55:15.015Z,8.90
2022-12-23T20:57:44.642Z,9.03
2022-12-23T21:00:12.853Z,9.07
2022-12-23T21:02:40.977Z,9.31
2022-12-23T21:05:08.824Z,9.27
2022-12-23T21:07:37.759Z,9.15
2022-12-23T21:10:05.776Z,9.05
2022-12-23T21:12:33.335Z,9.12
2022-12-23T21:15:01.165Z,9.19
2022-12-23T21:17:30.045Z,9.18
2022-12-23T21:19:59.370Z,9.26
2022-12-23T21:22:29.587Z,9.33
2022-12-23T21:24:57.799Z,9.40
2022-12-23T21:27:25.371Z,9.60
2022-12-23T21:29:53.018Z,9.63
2022-12-23T21:32:20.847Z,9.20
2022-12-23T21:34:51.931Z,9.22
2022-12-23T21:37:19.638Z,9.21
2022-12-23T21:39:50.836Z,9.17
2022-12-23T21:42:18.452Z,9.36
2022-12-23T21:44:46.929Z,9.73
2022-12-23T21:47:15.026Z,9.73
2022-12-23T21:49:44.137Z,9.39
2022-12-23T21:52:11.952Z,9.24
2022-12-23T21:54:39.549Z,9.19
2022-12-23T21:57:07.081Z,9.11
2022-12-23T21:59:35.556Z,9.03
2022-12-23T22:02:03.551Z,9.06
2022-12-23T22:04:31.421Z,9.25
2022-12-23T22:06:59.058Z,9.52
2022-12-23T22:09:26.739Z,9.80
2022-12-23T22:11:56.440Z,9.80
2022-12-23T22:14:24.195Z,9.85
2022-12-23T22:16:51.806Z,9.79
2022-12-23T22:19:19.569Z,9.67
2022-12-23T22:21:47.017Z,9.51
2022-12-23T22:24:14.706Z,9.72
2022-12-23T22:26:42.562Z,9.88
2022-12-23T22:29:10.656Z,10.08
2022-12-23T22:31:40.671Z,9.91
2022-12-23T22:34:09.223Z,9.49
2022-12-23T22:36:36.888Z,9.36
2022-12-23T22:39:05.351Z,9.64
2022-12-23T22:41:34.005Z,9.76
2022-12-23T22:44:01.795Z,10.00
2022-12-23T22:46:29.783Z,10.11
2022-12-23T22:48:59.022Z,10.03
2022-12-23T22:51:28.203Z,9.94
2022-12-23T22:53:56.221Z,9.91
2022-12-23T22:56:24.558Z,9.96
2022-12-23T22:58:52.999Z,9.76
2022-12-23T23:01:22.623Z,9.82
2022-12-23T23:03:56.901Z,9.87
2022-12-23T23:06:25.902Z,9.78
2022-12-23T23:08:54.333Z,9.72
2022-12-23T23:11:22.322Z,9.77
2022-12-23T23:13:50.035Z,9.75
2022-12-23T23:16:17.774Z,9.80
2022-12-23T23:18:45.610Z,9.85
2022-12-23T23:21:14.122Z,9.91
2022-12-23T23:23:42.094Z,9.69
2022-12-23T23:26:10.395Z,9.33
2022-12-23T23:28:39.429Z,9.39
2022-12-23T23:31:40.381Z,9.50
2022-12-23T23:33:55.552Z,9.74
2022-12-23T23:36:23.557Z,9.55
2022-12-23T23:38:51.272Z,9.81
2022-12-23T23:41:23.226Z,9.75
2022-12-23T23:43:52.001Z,9.82
2022-12-23T23:46:19.831Z,9.74
2022-12-23T23:48:47.703Z,9.68
2022-12-23T23:51:15.155Z,9.55
2022-12-23T23:53:42.965Z,9.64
2022-12-23T23:56:10.736Z,9.32
2022-12-23T23:58:38.670Z,9.22
